Strona główna
METAR-TAF:

METAR-TAF

Lotnisko :

Troyes, Francja

Szerokość geograficzna: 48-20N, Długość geograficzna: 004-01E, wysokość: 118 m

Aktualna obserwacja pogody

Raport powstał 33 minut temu, godzina 12:00 UTC
Wiatr 6 kt od północ, zmienny między północny zachód i północny wschód
Temperatura 26°C
Wilgotność 37%
Ciśnienie 1015 hPa
Widzialność 10 km lub więcej
Brak chmur poniżej 1500 m i brak chmur cumulonimbus

METAR: LFQB 171200Z AUTO 35006KT 310V040 CAVOK 26/10 Q1015

czas: 14:33 (12:33 UTC)


TAF: brakujący

Obserwacja i prognoza pogody dla ponad 4000 lotnisk (raport METAR i TAF).

Dostępne stacje oznaczono żółtymi i czerwonymi punktami na mapie.

Najedź kursorem aby zobaczyć nazwę stacji.

Kliknij aby zobaczyć obserwacje i prognozy pogody.

Aby zmienić mapę: kliknij na zielony przycisk z czarnym krzyżykiem, aby powiększyć; na zielony przycisk z myślnikiem, aby pomniejszyć; na zielone strzałki, aby przejść do map sąsiednich.


METAR-TAF: